Time;durP1;ratioP1;P1;durP2;ratioP2;P2;SDS_P1;SDS_P2;PMS_P1;PMS_P2;Temp;Humidity;BMP_temperature;BMP_pressure;BME280_temperature;BME280_humidity;BME280_pressure;Samples;Min_cycle;Max_cycle;Signal;HPM_P1;HPM_P2
2021/10/04 00:00:20;;;;;;;2.27;1.00;;;;;;;14.23;67.57;101087.06;6236441;28;20570;-55
2021/10/04 00:03:42;;;;;;;1.07;0.97;;;;;;;13.92;68.13;101085.03;6236740;28;20272;-52
2021/10/04 00:07:05;;;;;;;1.00;0.90;;;;;;;13.80;68.34;101070.44;6236509;28;20666;-54
2021/10/04 00:10:26;;;;;;;2.87;1.63;;;;;;;14.21;67.04;101088.84;6238459;28;20582;-52
2021/10/04 00:13:47;;;;;;;3.83;1.87;;;;;;;13.80;68.58;101104.44;6236519;28;20220;-53
2021/10/04 00:17:08;;;;;;;1.97;1.10;;;;;;;14.15;67.40;101106.44;6234439;28;20224;-53
2021/10/04 00:20:29;;;;;;;1.73;1.30;;;;;;;14.14;67.11;101114.31;6233155;28;20224;-52
2021/10/04 00:23:52;;;;;;;1.03;1.03;;;;;;;13.69;68.87;101112.50;6239023;28;20201;-49
2021/10/04 00:27:12;;;;;;;1.33;1.10;;;;;;;14.02;67.84;101131.13;6239423;28;20622;-55
2021/10/04 00:30:33;;;;;;;2.20;1.17;;;;;;;14.04;67.41;101118.00;6234951;28;20228;-52
2021/10/04 00:33:54;;;;;;;2.93;1.33;;;;;;;13.63;68.65;101130.94;6235185;28;20496;-50
2021/10/04 00:37:15;;;;;;;3.00;1.53;;;;;;;13.71;69.04;101136.03;6236247;28;20584;-52
2021/10/04 00:40:38;;;;;;;2.37;1.53;;;;;;;13.54;69.62;101145.03;6230852;28;20236;-53
2021/10/04 00:43:59;;;;;;;2.63;1.40;;;;;;;13.63;69.13;101138.78;6228723;28;20274;-50
2021/10/04 00:47:20;;;;;;;2.57;1.33;;;;;;;13.56;69.60;101145.00;6238874;28;20228;-50
2021/10/04 00:50:42;;;;;;;2.17;1.47;;;;;;;13.50;69.24;101140.72;6235749;28;20637;-53
2021/10/04 00:54:03;;;;;;;4.50;1.40;;;;;;;13.49;69.53;101146.88;6238546;28;20216;-51
2021/10/04 00:57:26;;;;;;;2.63;1.33;;;;;;;13.83;68.50;101148.91;6236387;28;20613;-52
2021/10/04 01:00:47;;;;;;;1.93;1.70;;;;;;;13.61;68.71;101150.16;6233038;28;20256;-52
2021/10/04 01:04:08;;;;;;;1.97;1.20;;;;;;;13.59;68.57;101148.44;6231838;28;20268;-51
2021/10/04 01:07:30;;;;;;;2.30;1.67;;;;;;;13.45;68.93;101160.84;6235164;28;20527;-52
2021/10/04 01:10:53;;;;;;;2.67;1.70;;;;;;;13.22;70.13;101169.00;6228144;28;21717;-50
2021/10/04 01:14:15;;;;;;;1.40;1.30;;;;;;;13.37;69.48;101175.81;6230799;28;20229;-53
2021/10/04 01:17:36;;;;;;;1.20;1.10;;;;;;;13.63;68.42;101172.81;6233804;28;20504;-51
2021/10/04 01:20:59;;;;;;;4.30;1.50;;;;;;;13.27;69.17;101182.91;6240088;28;20311;-53
2021/10/04 01:24:20;;;;;;;2.03;1.40;;;;;;;13.32;69.18;101182.88;6238115;28;20280;-48
2021/10/04 01:27:41;;;;;;;4.17;1.70;;;;;;;13.64;68.16;101171.91;6241318;28;20646;-51
2021/10/04 01:31:02;;;;;;;3.30;1.80;;;;;;;13.22;69.35;101196.94;6236230;28;20228;-51
2021/10/04 01:34:24;;;;;;;3.40;1.70;;;;;;;13.53;68.34;101179.94;6238031;28;20209;-51
2021/10/04 01:37:46;;;;;;;2.50;1.57;;;;;;;13.49;68.35;101180.88;6237069;28;20402;-52
2021/10/04 01:41:07;;;;;;;3.53;1.67;;;;;;;13.49;68.66;101193.06;6238995;28;20500;-52
2021/10/04 01:44:28;;;;;;;3.57;1.50;;;;;;;13.61;67.79;101213.84;6238856;28;21778;-49
2021/10/04 01:47:49;;;;;;;3.70;1.80;;;;;;;13.97;67.56;101212.38;6238955;28;20549;-53
2021/10/04 01:51:10;;;;;;;2.90;2.47;;;;;;;13.98;67.08;101211.50;6239743;28;20237;-53
2021/10/04 01:54:33;;;;;;;3.03;1.57;;;;;;;13.39;69.08;101227.22;6240449;28;20229;-52
2021/10/04 01:57:54;;;;;;;2.93;2.03;;;;;;;13.90;67.50;101216.00;6242161;28;20217;-54
2021/10/04 02:01:15;;;;;;;3.40;1.90;;;;;;;13.23;69.67;101220.44;6237759;28;20610;-53
2021/10/04 02:04:36;;;;;;;1.93;1.33;;;;;;;13.05;70.17;101231.16;6239252;28;20240;-52
2021/10/04 02:07:57;;;;;;;1.87;1.50;;;;;;;13.58;69.02;101232.19;6237230;28;20614;-51
2021/10/04 02:11:19;;;;;;;4.03;1.67;;;;;;;13.50;68.76;101229.69;6238856;28;21431;-51
2021/10/04 02:14:40;;;;;;;3.10;2.00;;;;;;;13.73;67.78;101231.09;6237830;28;20242;-52
2021/10/04 02:18:02;;;;;;;2.80;1.60;;;;;;;13.67;67.93;101255.63;6236211;28;20217;-53
2021/10/04 02:21:23;;;;;;;4.10;1.97;;;;;;;13.99;66.82;101257.72;6238976;28;20303;-51
2021/10/04 02:24:44;;;;;;;3.00;2.20;;;;;;;13.93;67.54;101256.97;6239473;28;20549;-52
2021/10/04 02:28:08;;;;;;;4.43;2.80;;;;;;;13.64;68.27;101262.66;6234963;28;20200;-50
2021/10/04 02:31:29;;;;;;;3.97;1.77;;;;;;;13.88;67.47;101264.91;6237997;28;20252;-55
2021/10/04 02:34:50;;;;;;;3.33;1.77;;;;;;;13.97;67.15;101259.50;6237531;28;20603;-54
2021/10/04 02:38:12;;;;;;;3.07;1.40;;;;;;;13.39;68.90;101262.97;6237842;28;20208;-51
2021/10/04 02:41:33;;;;;;;4.07;2.00;;;;;;;13.59;68.65;101255.72;6236520;28;20647;-53
2021/10/04 02:44:55;;;;;;;4.07;2.40;;;;;;;13.77;68.20;101241.50;6237873;28;20201;-52
2021/10/04 02:48:17;;;;;;;3.00;2.13;;;;;;;13.63;68.73;101240.84;6238085;28;20209;-53
2021/10/04 02:51:38;;;;;;;6.83;2.23;;;;;;;13.99;67.14;101236.75;6237941;28;20228;-51
2021/10/04 02:54:59;;;;;;;2.83;2.17;;;;;;;14.18;66.49;101236.47;6237418;28;20594;-52
2021/10/04 02:58:20;;;;;;;3.37;1.83;;;;;;;13.92;67.31;101239.50;6242482;28;20192;-50
2021/10/04 03:01:42;;;;;;;3.33;2.23;;;;;;;13.95;67.05;101240.31;6234717;28;20523;-49
2021/10/04 03:05:04;;;;;;;5.93;2.40;;;;;;;13.98;66.96;101242.91;6235588;28;20228;-53
2021/10/04 03:08:24;;;;;;;4.63;2.33;;;;;;;13.78;68.04;101247.59;6242829;28;20452;-54
2021/10/04 03:11:45;;;;;;;2.87;2.57;;;;;;;13.89;67.65;101235.19;6235543;28;20665;-51
2021/10/04 03:15:07;;;;;;;5.80;5.03;;;;;;;14.05;67.55;101235.81;6235138;28;20642;-54
2021/10/04 03:18:29;;;;;;;8.53;5.47;;;;;;;14.32;66.83;101237.06;6235151;28;20269;-53
2021/10/04 03:21:50;;;;;;;5.37;3.33;;;;;;;14.13;66.60;101254.00;6236362;28;20280;-53
2021/10/04 03:25:11;;;;;;;4.43;2.23;;;;;;;13.76;68.21;101254.59;6237270;28;20228;-52
2021/10/04 03:28:32;;;;;;;7.13;2.60;;;;;;;14.30;66.67;101251.97;6232722;28;20301;-51
2021/10/04 03:31:53;;;;;;;4.73;2.03;;;;;;;13.68;68.02;101256.47;6233239;28;20224;-47
2021/10/04 03:35:16;;;;;;;3.67;2.03;;;;;;;13.29;69.40;101271.81;6234571;28;20233;-54
2021/10/04 03:38:37;;;;;;;2.73;1.97;;;;;;;13.28;69.77;101278.81;6230751;28;20213;-51
2021/10/04 03:41:57;;;;;;;3.97;2.47;;;;;;;13.22;69.98;101283.22;6230426;28;20216;-53
2021/10/04 03:45:19;;;;;;;3.77;2.83;;;;;;;13.20;70.42;101289.34;6233303;28;20225;-55
2021/10/04 03:48:40;;;;;;;5.50;2.83;;;;;;;13.16;70.36;101290.28;6237950;28;20630;-54
2021/10/04 03:52:02;;;;;;;3.37;3.07;;;;;;;13.15;70.81;101288.53;6237121;28;20332;-52
2021/10/04 03:55:23;;;;;;;3.27;1.97;;;;;;;13.31;70.02;101283.16;6239730;28;20232;-53
2021/10/04 03:58:45;;;;;;;8.03;5.57;;;;;;;13.39;69.66;101281.28;6239543;28;20209;-49
2021/10/04 04:02:06;;;;;;;4.77;3.17;;;;;;;13.43;69.09;101280.38;6235319;28;20251;-48
2021/10/04 04:05:27;;;;;;;8.17;7.30;;;;;;;13.52;69.19;101274.16;6232155;28;20224;-54
2021/10/04 04:08:49;;;;;;;4.40;3.23;;;;;;;13.17;70.38;101281.53;6238581;28;20188;-51
2021/10/04 04:12:10;;;;;;;13.10;9.17;;;;;;;13.72;68.50;101277.34;6233772;28;20565;-53
2021/10/04 04:15:31;;;;;;;10.50;9.40;;;;;;;14.04;67.30;101285.59;6237681;28;20483;-47
2021/10/04 04:18:52;;;;;;;5.70;3.57;;;;;;;13.53;68.47;101295.06;6235728;28;20236;-53
2021/10/04 04:22:12;;;;;;;5.20;3.50;;;;;;;13.16;70.38;101286.78;6232592;28;20224;-51
2021/10/04 04:25:35;;;;;;;6.80;6.17;;;;;;;13.51;69.55;101307.31;6229785;28;20331;-50
2021/10/04 04:28:56;;;;;;;5.47;3.47;;;;;;;13.13;69.87;101315.59;6235419;28;20200;-49
2021/10/04 04:32:17;;;;;;;4.43;3.10;;;;;;;12.99;71.01;101323.59;6236621;28;20232;-54
2021/10/04 04:35:38;;;;;;;3.10;2.90;;;;;;;13.19;70.39;101316.38;6238859;28;20232;-52
2021/10/04 04:38:59;;;;;;;3.97;2.50;;;;;;;12.87;71.00;101322.00;6239055;28;20525;-51
2021/10/04 04:42:21;;;;;;;6.93;3.13;;;;;;;13.17;70.14;101323.38;6236678;28;20236;-49
2021/10/04 04:45:43;;;;;;;5.80;3.50;;;;;;;13.26;70.09;101334.59;6234436;28;20224;-50
2021/10/04 04:49:04;;;;;;;4.53;3.10;;;;;;;12.85;71.19;101342.03;6235732;28;20236;-51
2021/10/04 04:52:24;;;;;;;9.40;8.40;;;;;;;12.99;70.84;101336.69;6235543;28;20256;-51
2021/10/04 04:55:45;;;;;;;6.27;5.00;;;;;;;12.93;70.47;101347.19;6240101;28;20232;-52
2021/10/04 04:59:08;;;;;;;3.90;2.97;;;;;;;13.27;69.80;101349.44;6238611;28;20602;-52
2021/10/04 05:02:33;;;;;;;5.13;3.20;;;;;;;12.86;70.70;101358.59;6233177;28;20482;-50
2021/10/04 05:05:54;;;;;;;4.20;3.03;;;;;;;13.07;70.48;101357.50;6238347;28;20225;-52
2021/10/04 05:09:15;;;;;;;4.33;3.33;;;;;;;12.92;70.92;101355.91;6241162;28;20201;-54
2021/10/04 05:12:36;;;;;;;3.77;2.70;;;;;;;12.89;70.66;101350.72;6238694;28;20311;-51
2021/10/04 05:15:59;;;;;;;8.03;3.53;;;;;;;13.41;69.01;101360.63;6238604;28;20232;-54
2021/10/04 05:19:20;;;;;;;4.53;3.37;;;;;;;13.35;69.21;101366.78;6239056;28;20186;-50
2021/10/04 05:22:41;;;;;;;4.13;2.80;;;;;;;13.41;68.96;101368.47;6239009;28;20337;-54
2021/10/04 05:26:02;;;;;;;4.97;2.73;;;;;;;13.39;68.74;101383.31;6241486;28;20220;-55
2021/10/04 05:29:23;;;;;;;5.93;3.53;;;;;;;13.00;69.67;101393.31;6239670;28;20472;-56
2021/10/04 05:32:45;;;;;;;5.23;4.03;;;;;;;13.11;69.94;101383.59;6234983;28;20228;-52
2021/10/04 05:36:07;;;;;;;4.50;3.60;;;;;;;12.93;70.29;101386.38;6239319;28;20232;-53
2021/10/04 05:39:28;;;;;;;4.10;2.97;;;;;;;12.83;71.22;101384.75;6234136;28;20197;-53
2021/10/04 05:42:49;;;;;;;3.03;2.50;;;;;;;13.26;69.78;101384.31;6235388;28;20343;-51
2021/10/04 05:46:10;;;;;;;9.83;3.43;;;;;;;13.33;69.09;101365.09;6227640;28;20229;-51
2021/10/04 05:49:32;;;;;;;4.80;3.10;;;;;;;13.00;70.33;101380.22;6239348;28;20201;-51
2021/10/04 05:52:53;;;;;;;4.37;3.73;;;;;;;12.96;70.37;101379.38;6231918;28;20497;-55
2021/10/04 05:56:14;;;;;;;3.93;3.53;;;;;;;12.82;70.99;101378.66;6233236;28;20470;-48
2021/10/04 05:59:35;;;;;;;4.60;3.67;;;;;;;13.27;69.45;101386.06;6238391;28;20220;-53
2021/10/04 06:02:56;;;;;;;5.63;3.50;;;;;;;13.24;69.85;101391.31;6231550;28;20492;-49
2021/10/04 06:06:18;;;;;;;5.17;3.87;;;;;;;13.22;69.64;101398.31;6236249;28;20236;-51
2021/10/04 06:09:40;;;;;;;7.40;3.77;;;;;;;13.55;68.30;101392.72;6238420;28;20208;-55
2021/10/04 06:13:00;;;;;;;8.17;3.50;;;;;;;13.40;69.00;101390.31;6239454;28;20228;-54
2021/10/04 06:16:21;;;;;;;3.93;3.23;;;;;;;13.61;68.10;101398.75;6237235;28;20612;-51
2021/10/04 06:19:42;;;;;;;4.57;3.17;;;;;;;13.55;68.15;101402.31;6239618;28;20221;-53
2021/10/04 06:23:05;;;;;;;6.47;3.47;;;;;;;13.15;69.26;101408.84;6235524;28;20202;-52
2021/10/04 06:26:25;;;;;;;4.63;3.73;;;;;;;13.19;69.76;101410.53;6238962;28;20267;-49
2021/10/04 06:29:46;;;;;;;5.93;3.70;;;;;;;13.39;69.08;101412.94;6235876;28;20189;-52
2021/10/04 06:33:07;;;;;;;5.37;4.23;;;;;;;13.78;67.56;101415.13;6243902;28;20657;-53
2021/10/04 06:36:28;;;;;;;7.30;4.63;;;;;;;13.32;69.26;101415.69;6240239;28;20540;-54
2021/10/04 06:39:50;;;;;;;4.33;3.60;;;;;;;13.68;67.70;101426.59;6239663;28;20221;-55
2021/10/04 06:43:11;;;;;;;5.10;3.77;;;;;;;13.35;68.68;101431.31;6245294;28;20200;-52
2021/10/04 06:46:33;;;;;;;6.13;3.97;;;;;;;13.46;68.60;101429.47;6242136;28;20516;-53
2021/10/04 06:49:54;;;;;;;5.53;2.87;;;;;;;13.73;67.58;101440.50;6241063;28;20196;-50
2021/10/04 06:53:15;;;;;;;7.40;3.13;;;;;;;13.59;68.26;101440.69;6238375;28;20192;-52
2021/10/04 06:56:38;;;;;;;4.10;2.90;;;;;;;13.30;69.02;101440.97;6235946;28;20569;-52
2021/10/04 06:59:59;;;;;;;7.97;3.33;;;;;;;13.61;68.14;101443.25;6238402;28;20189;-54
2021/10/04 07:03:21;;;;;;;4.80;4.00;;;;;;;13.96;67.15;101462.03;6236065;28;20457;-50
2021/10/04 07:06:42;;;;;;;5.33;3.83;;;;;;;13.73;67.71;101466.69;6228246;28;20228;-49
2021/10/04 07:10:04;;;;;;;2.83;2.20;;;;;;;13.33;69.20;101469.72;6228905;28;20252;-53
2021/10/04 07:13:26;;;;;;;5.43;2.57;;;;;;;13.55;68.47;101468.63;6230055;28;20586;-50
2021/10/04 07:16:47;;;;;;;6.30;2.97;;;;;;;13.42;68.42;101469.63;6230348;28;20243;-46
2021/10/04 07:20:09;;;;;;;4.13;2.73;;;;;;;13.54;69.21;101479.09;6231296;28;20228;-46
2021/10/04 07:23:30;;;;;;;3.70;2.50;;;;;;;13.48;69.29;101485.25;6235306;28;20200;-46
2021/10/04 07:26:51;;;;;;;7.37;3.50;;;;;;;13.63;69.13;101481.63;6228670;28;20307;-47
2021/10/04 07:30:15;;;;;;;5.93;2.00;;;;;;;13.70;68.37;101487.63;6230408;28;20232;-51
2021/10/04 07:33:36;;;;;;;4.60;2.50;;;;;;;13.78;68.19;101494.53;6233204;28;20442;-53
2021/10/04 07:36:57;;;;;;;5.67;2.43;;;;;;;14.08;67.50;101507.28;6244346;28;20318;-49
2021/10/04 07:40:18;;;;;;;5.03;2.67;;;;;;;14.19;66.85;101510.63;6239341;28;20503;-50
2021/10/04 07:43:39;;;;;;;3.20;2.70;;;;;;;14.49;66.36;101508.47;6233127;28;20585;-51
2021/10/04 07:47:03;;;;;;;2.50;2.23;;;;;;;13.76;67.76;101522.47;6237214;28;20220;-45
2021/10/04 07:50:23;;;;;;;5.47;2.73;;;;;;;14.00;68.10;101525.69;6232660;28;20220;-46
2021/10/04 07:53:46;;;;;;;4.80;2.03;;;;;;;14.37;66.38;101527.84;6234699;28;20205;-48
2021/10/04 07:57:12;;;;;;;4.67;2.67;;;;;;;14.03;66.92;101528.25;6242916;28;20229;-47
2021/10/04 08:00:33;;;;;;;4.50;2.40;;;;;;;14.05;67.04;101528.25;6236932;28;20236;-46
2021/10/04 08:03:56;;;;;;;3.17;2.17;;;;;;;14.24;66.55;101529.75;6230763;28;20466;-52
2021/10/04 08:07:17;;;;;;;3.67;2.30;;;;;;;14.58;65.37;101531.97;6232848;28;20602;-50
2021/10/04 08:10:38;;;;;;;5.87;2.33;;;;;;;15.10;63.42;101522.41;6232225;28;20618;-50
2021/10/04 08:13:59;;;;;;;5.90;2.33;;;;;;;15.07;63.45;101527.72;6239685;28;20193;-49
2021/10/04 08:17:21;;;;;;;10.17;3.33;;;;;;;15.48;63.25;101529.63;6235946;28;20558;-48
2021/10/04 08:20:43;;;;;;;4.23;2.47;;;;;;;15.45;62.57;101534.94;6231151;28;20224;-52
2021/10/04 08:24:04;;;;;;;8.73;1.90;;;;;;;15.47;63.02;101537.50;6231991;28;20193;-51
2021/10/04 08:27:25;;;;;;;4.20;1.77;;;;;;;14.86;63.10;101544.66;6241379;28;20224;-49
2021/10/04 08:30:46;;;;;;;7.57;2.20;;;;;;;15.10;63.03;101539.03;6230771;28;20228;-49
2021/10/04 08:34:08;;;;;;;5.63;2.17;;;;;;;14.99;62.73;101548.81;6239250;28;20193;-49
2021/10/04 08:37:32;;;;;;;4.37;2.00;;;;;;;15.18;62.27;101538.00;6235031;28;20540;-49
2021/10/04 08:40:53;;;;;;;5.33;2.20;;;;;;;15.22;62.24;101532.72;6230588;28;20224;-52
2021/10/04 08:44:15;;;;;;;3.37;2.00;;;;;;;14.61;63.89;101533.66;6233731;28;20192;-52
2021/10/04 08:47:38;;;;;;;5.27;3.47;;;;;;;15.58;62.36;101529.44;6231813;28;20229;-52
2021/10/04 08:50:59;;;;;;;2.63;2.00;;;;;;;15.50;61.06;101514.69;6228479;28;20233;-48
2021/10/04 08:54:25;;;;;;;3.57;2.00;;;;;;;15.18;61.93;101524.91;6235599;28;20193;-46
2021/10/04 08:57:46;;;;;;;3.57;1.93;;;;;;;15.76;61.94;101534.41;6236728;28;20590;-46
2021/10/04 09:01:08;;;;;;;6.53;1.70;;;;;;;14.86;62.55;101548.13;6232981;28;20260;-50
2021/10/04 09:04:31;;;;;;;2.33;1.57;;;;;;;15.56;61.18;101543.47;6225202;28;20213;-53
2021/10/04 09:07:53;;;;;;;2.30;1.77;;;;;;;15.67;61.30;101552.91;6239684;28;20593;-51
2021/10/04 09:11:27;;;;;;;2.60;1.67;;;;;;;16.38;59.73;101528.75;6234069;28;20335;-49
2021/10/04 09:14:48;;;;;;;5.53;2.27;;;;;;;15.11;62.31;101545.13;6230098;28;20193;-50
2021/10/04 09:18:18;;;;;;;2.83;1.87;;;;;;;14.90;62.62;101541.94;6231228;28;20582;-48
2021/10/04 09:21:39;;;;;;;4.40;1.43;;;;;;;15.30;61.77;101535.22;6234858;28;20499;-49
2021/10/04 09:25:06;;;;;;;6.63;2.20;;;;;;;15.00;62.86;101540.06;6235299;28;20201;-49
2021/10/04 09:28:30;;;;;;;4.23;2.03;;;;;;;15.18;62.10;101535.41;6233535;28;20197;-49
2021/10/04 09:31:52;;;;;;;7.20;2.23;;;;;;;15.04;62.36;101560.09;6234624;28;20311;-52
2021/10/04 09:35:25;;;;;;;4.63;2.17;;;;;;;14.65;63.96;101565.03;6233958;28;20251;-51
2021/10/04 09:38:46;;;;;;;5.27;2.03;;;;;;;14.70;64.23;101571.09;6239143;28;20583;-49
2021/10/04 09:42:10;;;;;;;3.83;1.93;;;;;;;14.98;63.37;101565.44;6238399;28;20331;-51
2021/10/04 09:45:33;;;;;;;8.07;2.43;;;;;;;15.32;62.24;101559.66;6235945;28;20224;-51
2021/10/04 09:49:00;;;;;;;4.47;2.43;;;;;;;15.09;63.25;101579.25;6241501;28;20283;-53
2021/10/04 09:52:36;;;;;;;3.60;2.03;;;;;;;14.60;64.35;101581.72;6242748;28;20725;-54
2021/10/04 09:55:57;;;;;;;4.20;2.03;;;;;;;15.59;61.52;101566.19;6242274;28;20602;-53
2021/10/04 09:59:18;;;;;;;2.23;1.17;;;;;;;14.90;62.67;101575.19;6238891;28;20213;-50
2021/10/04 10:02:41;;;;;;;5.03;1.47;;;;;;;15.01;62.84;101560.16;6242647;28;20486;-54
2021/10/04 10:06:02;;;;;;;4.50;2.00;;;;;;;14.98;62.96;101554.94;6239950;28;20228;-52
2021/10/04 10:09:23;;;;;;;5.33;1.93;;;;;;;15.54;61.73;101554.88;6241140;28;20208;-50
2021/10/04 10:12:44;;;;;;;7.10;2.20;;;;;;;15.11;62.31;101550.38;6239895;28;20216;-55
2021/10/04 10:16:09;;;;;;;7.07;2.00;;;;;;;15.74;60.63;101551.91;6241412;28;20536;-53
2021/10/04 10:19:36;;;;;;;5.27;2.00;;;;;;;14.92;62.35;101560.28;6247859;28;20201;-53
2021/10/04 10:22:58;;;;;;;2.27;1.30;;;;;;;15.51;61.48;101565.47;6243913;28;20220;-52
2021/10/04 10:26:37;;;;;;;3.90;2.27;;;;;;;15.91;59.79;101539.31;6240725;28;20252;-54
2021/10/04 10:30:16;;;;;;;2.93;1.90;;;;;;;15.60;60.55;101559.16;6243854;28;20196;-48
2021/10/04 10:33:45;;;;;;;4.73;1.53;;;;;;;15.35;61.82;101554.34;6245741;28;20201;-55
2021/10/04 10:37:09;;;;;;;2.17;1.60;;;;;;;15.32;61.56;101560.53;6245691;28;20236;-52
2021/10/04 10:40:30;;;;;;;3.90;1.77;;;;;;;15.46;61.41;101562.91;6244114;28;20224;-51
2021/10/04 10:44:07;;;;;;;5.50;2.33;;;;;;;15.36;61.19;101566.59;6242149;28;20770;-53
2021/10/04 10:47:58;;;;;;;1.90;1.60;;;;;;;15.31;61.00;101569.28;6229855;28;20543;-55
2021/10/04 10:51:20;;;;;;;6.03;1.97;;;;;;;15.49;60.87;101573.34;6175702;28;20842;-50
2021/10/04 10:54:42;;;;;;;4.00;1.63;;;;;;;15.88;59.90;101565.69;6241687;28;20189;-50
2021/10/04 10:58:07;;;;;;;3.10;1.33;;;;;;;15.68;60.31;101578.25;6240973;28;20224;-49
2021/10/04 11:01:33;;;;;;;2.00;1.43;;;;;;;15.64;60.51;101584.47;6234838;28;20229;-51
2021/10/04 11:04:54;;;;;;;5.03;2.03;;;;;;;15.74;60.21;101591.31;6239518;28;20189;-55
2021/10/04 11:08:18;;;;;;;3.17;1.83;;;;;;;16.34;58.85;101585.78;6240977;28;20554;-50
2021/10/04 11:11:42;;;;;;;2.37;1.20;;;;;;;16.12;59.22;101593.22;6239407;28;20248;-49
2021/10/04 11:15:04;;;;;;;4.37;1.97;;;;;;;15.63;60.20;101602.00;6233995;28;20688;-54
2021/10/04 11:18:35;;;;;;;5.20;2.03;;;;;;;15.79;60.32;101597.34;6241794;28;20209;-51
2021/10/04 11:21:56;;;;;;;4.77;2.03;;;;;;;15.92;60.01;101584.88;6236462;28;20228;-52
2021/10/04 11:25:17;;;;;;;4.73;2.00;;;;;;;16.22;58.78;101580.75;6240241;28;20236;-52
2021/10/04 11:28:44;;;;;;;3.60;1.53;;;;;;;15.81;59.55;101579.81;6244823;28;20189;-49
2021/10/04 11:32:16;;;;;;;8.23;3.13;;;;;;;16.58;57.61;101593.19;6241184;28;20343;-52
2021/10/04 11:35:37;;;;;;;5.07;2.20;;;;;;;16.54;57.89;101592.38;6238387;28;20684;-54
2021/10/04 11:39:00;;;;;;;3.60;1.60;;;;;;;15.37;60.67;101602.41;6238496;28;20205;-49
2021/10/04 11:42:24;;;;;;;5.07;1.90;;;;;;;15.86;59.93;101596.34;6241290;28;20255;-52
2021/10/04 11:45:47;;;;;;;2.93;1.47;;;;;;;16.30;58.89;101589.38;6236720;28;20807;-53
2021/10/04 11:49:10;;;;;;;9.00;2.93;;;;;;;16.64;58.02;101587.78;6237455;28;20209;-53
2021/10/04 11:52:32;;;;;;;4.30;1.67;;;;;;;17.19;56.38;101585.66;6236588;28;20605;-49
2021/10/04 11:55:58;;;;;;;4.10;1.30;;;;;;;16.03;58.71;101584.66;6236906;28;20221;-49
2021/10/04 11:59:19;;;;;;;3.50;1.73;;;;;;;16.21;58.49;101578.19;6240178;28;20212;-51
2021/10/04 12:02:45;;;;;;;3.90;1.40;;;;;;;16.39;58.24;101561.16;6240812;28;20256;-51
2021/10/04 12:06:06;;;;;;;4.67;1.87;;;;;;;16.99;56.15;101562.47;6239458;28;20236;-50
2021/10/04 12:09:27;;;;;;;14.03;11.20;;;;;;;18.07;53.68;101550.00;6236223;28;20614;-51
2021/10/04 12:12:48;;;;;;;2.83;1.20;;;;;;;17.51;53.89;101548.84;6239290;28;20212;-52
2021/10/04 12:16:12;;;;;;;3.77;1.37;;;;;;;18.22;52.42;101540.78;6232287;28;20229;-53
2021/10/04 12:19:34;;;;;;;4.15;1.40;;;;;;;19.95;48.85;101546.56;6236382;28;20796;-51
2021/10/04 12:22:55;;;;;;;3.13;1.27;;;;;;;19.70;47.34;101551.84;6233709;28;20232;-49
2021/10/04 12:26:17;;;;;;;4.85;1.27;;;;;;;23.33;39.45;101544.28;6239677;28;20361;-53
2021/10/04 12:29:41;;;;;;;5.57;1.83;;;;;;;21.04;44.11;101537.94;6239069;28;20188;-53
2021/10/04 12:33:02;;;;;;;3.05;1.73;;;;;;;18.91;49.00;101545.75;6238544;28;20221;-52
2021/10/04 12:36:24;;;;;;;3.30;1.50;;;;;;;19.61;48.03;101529.28;6241839;28;20516;-50
2021/10/04 12:39:48;;;;;;;4.90;2.13;;;;;;;20.31;45.59;101544.34;6241901;28;20718;-50
2021/10/04 12:43:11;;;;;;;5.15;1.83;;;;;;;19.55;48.03;101548.00;6241426;28;20204;-49
2021/10/04 12:46:32;;;;;;;4.68;1.40;;;;;;;18.72;50.60;101548.06;6233408;28;20228;-54
2021/10/04 12:49:56;;;;;;;3.38;1.73;;;;;;;18.39;51.62;101550.81;6236345;28;20236;-53
2021/10/04 12:53:21;;;;;;;6.00;1.30;;;;;;;18.50;51.73;101559.28;6236602;28;20212;-52
2021/10/04 12:56:45;;;;;;;4.30;1.23;;;;;;;17.83;53.05;101548.88;6237459;28;20319;-53
2021/10/04 13:00:08;;;;;;;2.47;1.75;;;;;;;18.50;51.46;101533.75;6240730;28;20229;-50
2021/10/04 13:03:29;;;;;;;3.40;1.23;;;;;;;18.94;50.96;101543.88;6235672;28;20205;-50
2021/10/04 13:06:50;;;;;;;3.50;1.65;;;;;;;20.27;45.90;101535.66;6241319;28;20600;-52
2021/10/04 13:10:12;;;;;;;3.58;1.23;;;;;;;20.72;45.75;101535.75;6231022;28;20236;-49
2021/10/04 13:13:33;;;;;;;2.17;0.90;;;;;;;19.65;46.98;101530.88;6230353;28;20631;-52
2021/10/04 13:16:55;;;;;;;4.00;1.23;;;;;;;21.47;44.10;101540.59;6242957;28;20610;-51
2021/10/04 13:20:16;;;;;;;2.13;1.80;;;;;;;20.98;44.32;101546.13;6244447;28;20641;-49
2021/10/04 13:23:37;;;;;;;6.40;1.95;;;;;;;19.57;47.27;101552.28;6242019;28;20197;-53
2021/10/04 13:27:00;;;;;;;1.92;1.27;;;;;;;19.80;47.42;101551.50;6242050;28;20621;-54
2021/10/04 13:30:21;;;;;;;5.88;1.77;;;;;;;19.55;47.88;101551.50;6243140;28;20236;-49
2021/10/04 13:33:43;;;;;;;2.75;1.30;;;;;;;18.87;49.24;101543.19;6238669;28;20721;-53
2021/10/04 13:37:04;;;;;;;5.32;1.38;;;;;;;19.31;48.03;101547.03;6244619;28;20889;-49
2021/10/04 13:40:25;;;;;;;3.58;1.30;;;;;;;20.38;44.58;101550.28;6245763;28;20236;-53
2021/10/04 13:43:47;;;;;;;5.28;1.50;;;;;;;22.48;39.74;101534.28;6239178;28;20204;-50
2021/10/04 13:47:08;;;;;;;4.95;1.95;;;;;;;22.65;38.02;101542.31;6238835;28;20319;-52
2021/10/04 13:50:30;;;;;;;1.17;0.73;;;;;;;22.73;38.50;101528.66;6242201;28;20496;-49
2021/10/04 13:53:51;;;;;;;3.22;1.33;;;;;;;23.49;37.42;101539.03;6242028;28;20485;-49
2021/10/04 13:57:12;;;;;;;5.28;1.58;;;;;;;20.17;43.38;101547.50;6243994;28;20677;-51
2021/10/04 14:00:35;;;;;;;6.18;1.67;;;;;;;21.11;42.05;101549.16;6239099;28;20257;-47
2021/10/04 14:03:56;;;;;;;3.53;1.23;;;;;;;21.62;40.66;101536.41;6243285;28;20200;-53
2021/10/04 14:07:16;;;;;;;7.05;2.13;;;;;;;21.34;41.15;101537.56;6230443;28;20308;-55
2021/10/04 14:10:37;;;;;;;3.70;1.58;;;;;;;21.98;40.78;101533.03;6235364;28;20224;-54
2021/10/04 14:13:58;;;;;;;6.57;1.38;;;;;;;21.45;40.50;101533.63;6236088;28;20209;-50
2021/10/04 14:17:22;;;;;;;5.30;1.15;;;;;;;22.85;37.76;101541.31;6232396;28;20260;-47
2021/10/04 14:20:43;;;;;;;2.30;1.48;;;;;;;21.81;39.92;101536.47;6236186;28;20236;-51
2021/10/04 14:24:04;;;;;;;3.22;1.23;;;;;;;21.45;39.59;101533.63;6187859;28;20927;-47
2021/10/04 14:27:25;;;;;;;9.05;2.78;;;;;;;20.79;42.33;101550.47;6201552;28;20319;-49
2021/10/04 14:30:46;;;;;;;2.63;1.23;;;;;;;22.40;39.08;101543.47;6235253;28;20220;-47
2021/10/04 14:34:09;;;;;;;4.82;2.00;;;;;;;22.05;38.96;101545.09;6238123;28;20193;-47
2021/10/04 14:37:29;;;;;;;4.13;1.40;;;;;;;21.02;40.65;101545.09;6234855;28;20225;-47
2021/10/04 14:40:51;;;;;;;2.72;1.30;;;;;;;20.94;40.98;101541.91;6233891;28;20625;-48
2021/10/04 14:44:12;;;;;;;1.75;1.08;;;;;;;22.38;38.50;101533.88;6238670;28;20217;-51
2021/10/04 14:47:33;;;;;;;2.90;1.35;;;;;;;20.87;41.27;101535.13;6241867;28;20647;-49
2021/10/04 14:50:55;;;;;;;1.92;1.10;;;;;;;20.09;42.62;101539.00;6240746;28;20233;-48
2021/10/04 14:54:16;;;;;;;3.60;1.75;;;;;;;20.65;41.72;101530.69;6244376;28;20224;-52
2021/10/04 14:57:38;;;;;;;3.83;1.10;;;;;;;20.60;42.04;101531.81;6242778;28;20232;-54
2021/10/04 15:01:00;;;;;;;5.18;1.83;;;;;;;19.31;44.19;101536.47;6241448;28;20221;-50
2021/10/04 15:04:21;;;;;;;4.53;1.77;;;;;;;20.50;42.54;101525.13;6242271;28;20713;-51
2021/10/04 15:07:44;;;;;;;4.68;1.48;;;;;;;19.86;42.84;101531.94;6240760;28;20206;-49
2021/10/04 15:11:05;;;;;;;3.75;1.52;;;;;;;19.69;42.94;101524.56;6240943;28;20316;-49
2021/10/04 15:14:26;;;;;;;4.35;1.90;;;;;;;19.65;43.47;101530.88;6236743;28;20200;-50
2021/10/04 15:17:47;;;;;;;6.28;1.42;;;;;;;19.41;43.75;101540.56;6224097;28;20657;-52
2021/10/04 15:21:09;;;;;;;2.45;1.23;;;;;;;19.43;43.33;101530.78;6238081;28;20232;-50
2021/10/04 15:24:31;;;;;;;1.23;1.08;;;;;;;19.00;44.38;101532.22;6233156;28;20189;-48
2021/10/04 15:27:53;;;;;;;1.88;1.38;;;;;;;19.30;44.09;101530.34;6228776;28;20236;-45
2021/10/04 15:31:13;;;;;;;6.20;1.40;;;;;;;18.93;44.44;101541.28;6238683;28;20579;-50
2021/10/04 15:34:34;;;;;;;3.92;1.75;;;;;;;19.05;44.33;101528.53;6239867;28;20638;-48
2021/10/04 15:37:56;;;;;;;5.35;2.33;;;;;;;18.55;45.39;101522.19;6240593;28;20220;-51